Main page
METAR-TAF:

METAR-TAF

Airports :

Pierre Regional Airport

Pierre, South Dakota, United States

latitude: 44-22-58N, longitude: 100-17-09W, elevation: 1742 ft

Current weather observation

The report was made 31 minutes ago, at 13:53 UTC
Wind 9 mph from the West
Temperature 23°F
Humidity 79%
Pressure 29.88 in. Hg
Visibility: 10 miles
Clear sky

METAR: KPIR 221353Z AUTO 28008KT 10SM CLR M05/M08 A2988 RMK AO2 SLP141 T10501083

Time: 08:24 (14:24 UTC)

Forecast

The report was made 3 hours and 4 minutes ago, at 11:20 UTC
Forecast valid from 22 at 12 UTC to 23 at 12 UTC
Wind 0 mph from the North
Visibility: 6 miles
Clear sky
From 22 at 1900 UTC
Wind 12 mph from the West/Northwest
Visibility: 6 miles
Clear sky
From 23 at 1000 UTC
Wind 10 mph from the West/Northwest
Visibility: 6 miles
Scattered clouds at a height of 25000 ft

TAF: KPIR 221120Z 2212/2312 00000KT P6SM SKC FM221900 29010KT P6SM SKC FM231000 29009KT P6SM SCT250

Weather observations and forecasts of more than 4000 airports (METAR and TAF reports).

The available stations are represented by yellow and red dots on the map.

Hover mouse over dot to see the name of the station.

Then click to see weather observations and forecasts.

To change the map : click on the green buttons with a black cross to zoom in, on the green button with a dash to zoom out, or on the green arrows for adjacent maps.


METAR-TAF: